Time;durP1;ratioP1;P1;durP2;ratioP2;P2;SDS_P1;SDS_P2;PMS_P1;PMS_P2;Temp;Humidity;BMP_temperature;BMP_pressure;BME280_temperature;BME280_humidity;BME280_pressure;Samples;Min_cycle;Max_cycle;Signal;HPM_P1;HPM_P2
2023/09/01 00:01:25;;;;;;;;;;;;;;;19.88;100.00;99744.28;4972793;28;19933;-73
2023/09/01 00:03:57;;;;;;;;;;;;;;;19.90;100.00;99741.41;4973570;28;20089;-73
2023/09/01 00:06:22;;;;;;;;;;;;;;;19.86;100.00;99750.84;4955424;28;20022;-73
2023/09/01 00:08:47;;;;;;;;;;;;;;;19.70;100.00;99749.34;4972823;28;19949;-73
2023/09/01 00:11:13;;;;;;;;;;;;;;;19.50;100.00;99756.41;4972376;28;19926;-74
2023/09/01 00:13:39;;;;;;;;;;;;;;;19.52;100.00;99754.34;4970871;28;19933;-72
2023/09/01 00:16:04;;;;;;;;;;;;;;;19.52;100.00;99749.00;4970394;28;19927;-73
2023/09/01 00:18:30;;;;;;;;;;;;;;;19.39;100.00;99748.88;4971046;28;19981;-73
2023/09/01 00:21:03;;;;;;;;;;;;;;;19.17;100.00;99756.94;4972938;28;20393;-73
2023/09/01 00:23:29;;;;;;;;;;;;;;;18.99;100.00;99759.25;4969930;28;19922;-73
2023/09/01 00:25:55;;;;;;;;;;;;;;;18.93;100.00;99749.31;4973120;28;19929;-73
2023/09/01 00:28:21;;;;;;;;;;;;;;;18.64;100.00;99752.13;4972302;28;20405;-72
2023/09/01 00:30:53;;;;;;;;;;;;;;;18.61;100.00;99749.84;4973001;28;19941;-74
2023/09/01 00:33:19;;;;;;;;;;;;;;;18.68;100.00;99748.03;4973090;28;20833;-73
2023/09/01 00:35:48;;;;;;;;;;;;;;;18.50;100.00;99747.59;4972978;28;20348;-74
2023/09/01 00:38:14;;;;;;;;;;;;;;;18.48;100.00;99749.66;4955084;28;19961;-74
2023/09/01 00:40:39;;;;;;;;;;;;;;;18.39;100.00;99747.09;4972713;28;19970;-74
2023/09/01 00:43:04;;;;;;;;;;;;;;;18.34;100.00;99746.81;4955261;28;19977;-74
2023/09/01 00:45:30;;;;;;;;;;;;;;;18.27;100.00;99748.59;4972611;28;19922;-72
2023/09/01 00:47:55;;;;;;;;;;;;;;;18.30;100.00;99753.56;4955513;28;19929;-72
2023/09/01 00:50:20;;;;;;;;;;;;;;;18.30;100.00;99747.41;4954618;28;20348;-72
2023/09/01 00:52:46;;;;;;;;;;;;;;;18.27;100.00;99751.25;4971796;28;20284;-73
2023/09/01 00:55:11;;;;;;;;;;;;;;;18.30;100.00;99752.75;4954655;28;19922;-73
2023/09/01 00:57:37;;;;;;;;;;;;;;;18.41;100.00;99753.09;4970789;28;20133;-72
2023/09/01 01:00:05;;;;;;;;;;;;;;;18.49;100.00;99751.31;4951652;28;19930;-72
2023/09/01 01:02:31;;;;;;;;;;;;;;;18.48;100.00;99755.00;4952314;28;19922;-73
2023/09/01 01:04:57;;;;;;;;;;;;;;;18.47;100.00;99753.34;4970989;28;19922;-73
2023/09/01 01:07:38;;;;;;;;;;;;;;;18.54;100.00;99752.41;4971674;28;20287;-73
2023/09/01 01:10:10;;;;;;;;;;;;;;;18.50;100.00;99752.94;4969880;28;19926;-73
2023/09/01 01:12:44;;;;;;;;;;;;;;;18.54;100.00;99754.25;4972174;28;21688;-74
2023/09/01 01:15:11;;;;;;;;;;;;;;;18.54;100.00;99755.06;4970252;28;19937;-73
2023/09/01 01:17:38;;;;;;;;;;;;;;;18.51;100.00;99759.94;4972029;28;20012;-73
2023/09/01 01:20:13;;;;;;;;;;;;;;;18.32;100.00;99756.88;4971776;28;19925;-72
2023/09/01 01:22:43;;;;;;;;;;;;;;;18.15;100.00;99760.75;4971930;28;19922;-73
2023/09/01 01:25:09;;;;;;;;;;;;;;;18.12;100.00;99763.81;4971852;28;19969;-72
2023/09/01 01:27:35;;;;;;;;;;;;;;;17.90;100.00;99762.09;4971933;28;19926;-72
2023/09/01 01:30:00;;;;;;;;;;;;;;;17.72;100.00;99769.63;4971672;28;20283;-73
2023/09/01 01:32:26;;;;;;;;;;;;;;;17.74;100.00;99764.94;4971708;28;20821;-74
2023/09/01 01:34:59;;;;;;;;;;;;;;;17.58;100.00;99774.75;4972039;28;19922;-73
2023/09/01 01:37:29;;;;;;;;;;;;;;;17.52;100.00;99774.63;4954082;28;19925;-73
2023/09/01 01:39:55;;;;;;;;;;;;;;;17.45;100.00;99777.19;4950961;28;19922;-73
2023/09/01 01:42:21;;;;;;;;;;;;;;;17.35;100.00;99778.47;4971474;28;19929;-73
2023/09/01 01:44:47;;;;;;;;;;;;;;;17.33;100.00;99781.31;4954027;28;20387;-72
2023/09/01 01:47:13;;;;;;;;;;;;;;;17.28;100.00;99774.88;4971038;28;19933;-73
2023/09/01 01:49:39;;;;;;;;;;;;;;;17.19;100.00;99782.13;4954218;28;19928;-72
2023/09/01 01:52:04;;;;;;;;;;;;;;;17.30;100.00;99779.03;4954741;28;19922;-73
2023/09/01 01:54:30;;;;;;;;;;;;;;;17.36;100.00;99778.31;4975452;28;20457;-73
2023/09/01 01:56:55;;;;;;;;;;;;;;;17.50;100.00;99782.81;4975591;28;19922;-73
2023/09/01 01:59:21;;;;;;;;;;;;;;;17.62;100.00;99785.91;4969917;28;20371;-73
2023/09/01 02:01:46;;;;;;;;;;;;;;;17.65;100.00;99790.06;4973838;28;20057;-73
2023/09/01 02:04:11;;;;;;;;;;;;;;;17.73;100.00;99781.97;4974606;28;20020;-72
2023/09/01 02:06:37;;;;;;;;;;;;;;;17.86;100.00;99787.47;4974744;28;19922;-72
2023/09/01 02:09:09;;;;;;;;;;;;;;;17.87;100.00;99791.81;4974848;28;20302;-72
2023/09/01 02:11:35;;;;;;;;;;;;;;;17.92;100.00;99798.25;4971906;28;19962;-73
2023/09/01 02:14:00;;;;;;;;;;;;;;;17.83;100.00;99794.03;4975009;28;19957;-73
2023/09/01 02:16:26;;;;;;;;;;;;;;;17.69;100.00;99794.00;4973513;28;19989;-74
2023/09/01 02:18:51;;;;;;;;;;;;;;;17.58;100.00;99790.75;4969747;28;19922;-73
2023/09/01 02:21:19;;;;;;;;;;;;;;;17.54;100.00;99800.16;4974611;28;19918;-73
2023/09/01 02:23:45;;;;;;;;;;;;;;;17.48;100.00;99800.88;4975014;28;20326;-73
2023/09/01 02:26:16;;;;;;;;;;;;;;;17.41;100.00;99794.59;4974650;28;20020;-74
2023/09/01 02:28:42;;;;;;;;;;;;;;;17.27;100.00;99797.19;4975170;28;19922;-73
2023/09/01 02:31:08;;;;;;;;;;;;;;;17.22;100.00;99796.91;4974580;28;20017;-74
2023/09/01 02:33:34;;;;;;;;;;;;;;;17.21;100.00;99798.75;4973302;28;19922;-73
2023/09/01 02:36:19;;;;;;;;;;;;;;;17.23;100.00;99796.75;4973349;28;19922;-73
2023/09/01 02:38:44;;;;;;;;;;;;;;;17.31;100.00;99795.84;4974289;28;20386;-73
2023/09/01 02:41:10;;;;;;;;;;;;;;;17.40;100.00;99798.25;4974534;28;19922;-73
2023/09/01 02:43:35;;;;;;;;;;;;;;;17.31;100.00;99799.34;4974488;28;19926;-73
2023/09/01 02:46:00;;;;;;;;;;;;;;;17.09;100.00;99794.84;4974475;28;19926;-73
2023/09/01 02:48:26;;;;;;;;;;;;;;;17.19;100.00;99795.44;4974149;28;20678;-73
2023/09/01 02:50:51;;;;;;;;;;;;;;;17.23;100.00;99786.06;4970617;28;19922;-73
2023/09/01 02:53:16;;;;;;;;;;;;;;;17.20;100.00;99789.09;4972406;28;19929;-71
2023/09/01 02:55:42;;;;;;;;;;;;;;;17.20;100.00;99781.09;4973358;28;19923;-73
2023/09/01 02:58:07;;;;;;;;;;;;;;;17.18;100.00;99786.63;4972465;28;19918;-73
2023/09/01 03:00:32;;;;;;;;;;;;;;;17.19;100.00;99787.47;4970095;28;19933;-73
2023/09/01 03:02:58;;;;;;;;;;;;;;;17.08;100.00;99782.56;4973864;28;19918;-72
2023/09/01 03:05:24;;;;;;;;;;;;;;;16.92;100.00;99785.31;4972232;28;19969;-73
2023/09/01 03:07:50;;;;;;;;;;;;;;;16.96;100.00;99794.63;4973663;28;20532;-73
2023/09/01 03:10:16;;;;;;;;;;;;;;;17.05;100.00;99798.88;4972735;28;19922;-73
2023/09/01 03:12:41;;;;;;;;;;;;;;;17.11;100.00;99795.50;4972780;28;19929;-73
2023/09/01 03:15:09;;;;;;;;;;;;;;;17.04;100.00;99792.72;4972473;28;19922;-72
2023/09/01 03:17:34;;;;;;;;;;;;;;;17.16;100.00;99798.47;4972587;28;20012;-73
2023/09/01 03:19:59;;;;;;;;;;;;;;;17.22;100.00;99800.41;4972235;28;19958;-73
2023/09/01 03:22:25;;;;;;;;;;;;;;;17.31;100.00;99793.19;4971998;28;19929;-73
2023/09/01 03:24:51;;;;;;;;;;;;;;;17.31;100.00;99794.03;4972566;28;19934;-73
2023/09/01 03:27:16;;;;;;;;;;;;;;;17.32;100.00;99789.53;4973389;28;19980;-73
2023/09/01 03:29:43;;;;;;;;;;;;;;;17.38;100.00;99800.28;4972913;28;19918;-72
2023/09/01 03:32:10;;;;;;;;;;;;;;;17.38;100.00;99802.94;4972049;28;19922;-73
2023/09/01 03:34:36;;;;;;;;;;;;;;;17.26;100.00;99801.72;4972209;28;19918;-73
2023/09/01 03:37:02;;;;;;;;;;;;;;;17.18;100.00;99793.78;4973069;28;20383;-73
2023/09/01 03:39:27;;;;;;;;;;;;;;;17.15;100.00;99799.47;4971954;28;20064;-73
2023/09/01 03:41:53;;;;;;;;;;;;;;;16.98;100.00;99792.59;4973386;28;20012;-72
2023/09/01 03:44:18;;;;;;;;;;;;;;;17.05;100.00;99788.22;4973273;28;19926;-72
2023/09/01 03:46:43;;;;;;;;;;;;;;;17.00;100.00;99785.25;4973506;28;20387;-72
2023/09/01 03:49:09;;;;;;;;;;;;;;;16.97;100.00;99780.28;4973487;28;19918;-74
2023/09/01 03:51:34;;;;;;;;;;;;;;;16.93;100.00;99776.31;4971403;28;19922;-73
2023/09/01 03:53:59;;;;;;;;;;;;;;;16.88;100.00;99781.34;4960591;23;19965;-78
2023/09/01 03:56:25;;;;;;;;;;;;;;;16.75;100.00;99788.09;4915868;29;20408;-80
2023/09/01 03:58:50;;;;;;;;;;;;;;;16.69;100.00;99793.31;4915898;29;19923;-80
2023/09/01 04:01:15;;;;;;;;;;;;;;;16.71;100.00;99792.13;4930128;29;19931;-80
2023/09/01 04:03:42;;;;;;;;;;;;;;;16.71;100.00;99792.13;4915146;29;20018;-81
2023/09/01 04:06:08;;;;;;;;;;;;;;;16.75;100.00;99793.44;4915575;29;19970;-81
2023/09/01 04:08:37;;;;;;;;;;;;;;;16.78;100.00;99798.44;4914663;29;20022;-81
2023/09/01 04:11:03;;;;;;;;;;;;;;;16.72;100.00;99803.63;4915484;29;19927;-82
2023/09/01 04:13:28;;;;;;;;;;;;;;;16.68;100.00;99800.47;4917183;29;19930;-81
2023/09/01 04:15:55;;;;;;;;;;;;;;;16.71;100.00;99797.47;4929694;29;19927;-82
2023/09/01 04:18:22;;;;;;;;;;;;;;;16.76;100.00;99805.75;4930314;29;19927;-82
2023/09/01 04:20:48;;;;;;;;;;;;;;;16.70;100.00;99811.78;4929623;29;19978;-81
2023/09/01 04:23:14;;;;;;;;;;;;;;;16.50;100.00;99809.69;4913641;29;19924;-81
2023/09/01 04:25:39;;;;;;;;;;;;;;;16.33;100.00;99819.59;4928079;29;19924;-81
2023/09/01 04:28:05;;;;;;;;;;;;;;;16.21;100.00;99811.16;4929758;29;20388;-82
2023/09/01 04:30:31;;;;;;;;;;;;;;;16.28;100.00;99816.63;4915428;29;19981;-81
2023/09/01 04:32:56;;;;;;;;;;;;;;;16.25;100.00;99809.00;4914173;29;19923;-82
2023/09/01 04:35:22;;;;;;;;;;;;;;;16.36;100.00;99797.97;4926273;29;19970;-82
2023/09/01 04:37:47;;;;;;;;;;;;;;;16.46;100.00;99803.06;4933096;29;19970;-82
2023/09/01 04:40:13;;;;;;;;;;;;;;;16.55;100.00;99792.19;4914481;29;20487;-79
2023/09/01 04:42:39;;;;;;;;;;;;;;;16.60;100.00;99805.84;4913805;29;20432;-81
2023/09/01 04:45:04;;;;;;;;;;;;;;;16.65;100.00;99808.81;4914712;29;19923;-81
2023/09/01 04:47:29;;;;;;;;;;;;;;;16.68;100.00;99819.13;4913526;29;20273;-80
2023/09/01 04:49:55;;;;;;;;;;;;;;;16.64;100.00;99812.50;4914014;29;19923;-81
2023/09/01 04:52:20;;;;;;;;;;;;;;;16.39;100.00;99816.25;4929149;29;19927;-81
2023/09/01 04:54:46;;;;;;;;;;;;;;;16.40;100.00;99820.56;4914092;29;19931;-79
2023/09/01 04:57:11;;;;;;;;;;;;;;;16.33;100.00;99819.59;4913090;29;19923;-82
2023/09/01 04:59:37;;;;;;;;;;;;;;;16.34;100.00;99821.25;4913342;29;20419;-81
2023/09/01 05:02:03;;;;;;;;;;;;;;;16.38;100.00;99825.22;4914699;29;20018;-80
2023/09/01 05:04:28;;;;;;;;;;;;;;;16.42;100.00;99829.22;4913246;29;19923;-81
2023/09/01 05:06:53;;;;;;;;;;;;;;;16.50;100.00;99815.84;4915003;29;20029;-81
2023/09/01 05:09:20;;;;;;;;;;;;;;;16.45;100.00;99818.22;4912392;29;20050;-81
2023/09/01 05:11:46;;;;;;;;;;;;;;;16.45;100.00;99823.53;4929091;29;19966;-80
2023/09/01 05:14:11;;;;;;;;;;;;;;;16.45;100.00;99823.53;4912957;29;20017;-81
2023/09/01 05:16:36;;;;;;;;;;;;;;;16.52;100.00;99819.19;4929284;29;19935;-81
2023/09/01 05:19:02;;;;;;;;;;;;;;;16.56;100.00;99819.66;4913178;29;19934;-81
2023/09/01 05:21:28;;;;;;;;;;;;;;;16.64;100.00;99820.47;4928979;29;20380;-81
2023/09/01 05:23:53;;;;;;;;;;;;;;;16.64;100.00;99828.47;4928603;29;19923;-81
2023/09/01 05:26:19;;;;;;;;;;;;;;;16.70;100.00;99835.78;4928339;29;19930;-81
2023/09/01 05:28:44;;;;;;;;;;;;;;;16.77;100.00;99838.56;4913110;29;19952;-81
2023/09/01 05:31:11;;;;;;;;;;;;;;;16.60;100.00;99843.16;4912735;29;19923;-81
2023/09/01 05:33:41;;;;;;;;;;;;;;;16.59;100.00;99846.81;4914304;29;19931;-81
2023/09/01 05:36:06;;;;;;;;;;;;;;;16.61;100.00;99849.31;4913028;29;19930;-80
2023/09/01 05:38:31;;;;;;;;;;;;;;;16.58;100.00;99847.78;4914376;29;19931;-80
2023/09/01 05:40:58;;;;;;;;;;;;;;;16.62;100.00;99846.47;4913922;29;19946;-80
2023/09/01 05:43:24;;;;;;;;;;;;;;;16.67;100.00;99846.75;4912657;29;19931;-80
2023/09/01 05:45:49;;;;;;;;;;;;;;;16.63;100.00;99852.63;4928769;29;19923;-81
2023/09/01 05:48:14;;;;;;;;;;;;;;;16.54;100.00;99856.31;4912792;29;20052;-81
2023/09/01 05:50:42;;;;;;;;;;;;;;;16.57;100.00;99854.13;4929063;29;19923;-81
2023/09/01 05:53:09;;;;;;;;;;;;;;;16.59;100.00;99862.81;4928322;29;19983;-81
2023/09/01 05:55:35;;;;;;;;;;;;;;;16.69;100.00;99863.41;4913945;29;19922;-81
2023/09/01 05:58:00;;;;;;;;;;;;;;;16.72;100.00;99856.91;4914253;29;19946;-80
2023/09/01 06:00:25;;;;;;;;;;;;;;;16.79;100.00;99864.03;4914401;29;20010;-81
2023/09/01 06:02:52;;;;;;;;;;;;;;;16.87;100.00;99865.00;4914289;29;20014;-81
2023/09/01 06:05:17;;;;;;;;;;;;;;;16.94;100.00;99865.94;4913667;29;19974;-80
2023/09/01 06:07:42;;;;;;;;;;;;;;;16.95;100.00;99875.59;4913997;29;20026;-79
2023/09/01 06:10:08;;;;;;;;;;;;;;;16.89;100.00;99868.31;4913744;29;19919;-81
2023/09/01 06:12:33;;;;;;;;;;;;;;;16.90;100.00;99869.97;4913459;29;20329;-80
2023/09/01 06:14:59;;;;;;;;;;;;;;;16.98;100.00;99877.91;4914322;29;19986;-80
2023/09/01 06:17:24;;;;;;;;;;;;;;;17.08;100.00;99878.53;4915739;29;19948;-80
2023/09/01 06:19:49;;;;;;;;;;;;;;;17.15;100.00;99874.13;4916540;29;19923;-80
2023/09/01 06:22:15;;;;;;;;;;;;;;;17.23;100.00;99867.91;4915286;29;19962;-81
2023/09/01 06:24:40;;;;;;;;;;;;;;;17.33;100.00;99866.66;4914495;29;19967;-81
2023/09/01 06:27:05;;;;;;;;;;;;;;;17.41;100.00;99879.94;4914089;29;19951;-81
2023/09/01 06:29:30;;;;;;;;;;;;;;;17.51;100.00;99874.38;4914269;29;20053;-81
2023/09/01 06:31:56;;;;;;;;;;;;;;;17.58;100.00;99876.13;4914416;29;19923;-81
2023/09/01 06:34:21;;;;;;;;;;;;;;;17.69;100.00;99879.41;4914261;29;20304;-81
2023/09/01 06:36:46;;;;;;;;;;;;;;;17.80;100.00;99884.31;4915424;29;19927;-81
2023/09/01 06:39:12;;;;;;;;;;;;;;;17.85;100.00;99892.59;4916558;29;19931;-81
2023/09/01 06:41:37;;;;;;;;;;;;;;;17.87;100.00;99891.41;4932411;29;19930;-81
2023/09/01 06:44:02;;;;;;;;;;;;;;;17.91;100.00;99881.19;4916784;29;19923;-80
2023/09/01 06:46:28;;;;;;;;;;;;;;;17.99;100.00;99883.78;4917089;29;19923;-81
2023/09/01 06:48:53;;;;;;;;;;;;;;;18.04;100.00;99886.75;4917588;29;20009;-81
2023/09/01 06:51:18;;;;;;;;;;;;;;;18.16;100.00;99889.78;4931508;29;19923;-81
2023/09/01 06:53:44;;;;;;;;;;;;;;;18.24;100.00;99887.88;4917004;29;20022;-80
2023/09/01 06:56:09;;;;;;;;;;;;;;;18.33;100.00;99881.41;4916726;29;19923;-81
2023/09/01 06:58:34;;;;;;;;;;;;;;;18.45;100.00;99886.28;4917178;29;19931;-81
2023/09/01 07:01:07;;;;;;;;;;;;;;;18.53;100.00;99886.19;4916753;29;19951;-81
2023/09/01 07:03:33;;;;;;;;;;;;;;;18.60;100.00;99890.66;4916915;29;19927;-80
2023/09/01 07:05:58;;;;;;;;;;;;;;;18.70;100.00;99893.03;4916781;29;20356;-82
2023/09/01 07:08:23;;;;;;;;;;;;;;;18.79;100.00;99897.28;4916559;29;20015;-81
2023/09/01 07:10:49;;;;;;;;;;;;;;;18.85;100.00;99901.84;4916673;29;19930;-80
2023/09/01 07:13:14;;;;;;;;;;;;;;;18.93;100.00;99909.78;4916835;29;19923;-81
2023/09/01 07:15:40;;;;;;;;;;;;;;;19.02;100.00;99905.97;4914869;29;19930;-81
2023/09/01 07:18:05;;;;;;;;;;;;;;;19.11;100.00;99904.84;4916337;29;20403;-81
2023/09/01 07:20:30;;;;;;;;;;;;;;;19.18;100.00;99903.06;4916385;29;20465;-81
2023/09/01 07:22:55;;;;;;;;;;;;;;;19.23;100.00;99906.00;4916626;29;20372;-81
2023/09/01 07:25:21;;;;;;;;;;;;;;;19.28;100.00;99904.59;4915738;29;19927;-81
2023/09/01 07:27:46;;;;;;;;;;;;;;;19.33;100.00;99910.19;4916651;29;19959;-82
2023/09/01 07:30:13;;;;;;;;;;;;;;;19.38;100.00;99910.47;4915715;29;20374;-81
2023/09/01 07:32:40;;;;;;;;;;;;;;;19.41;100.00;99912.75;4916399;29;19933;-82
2023/09/01 07:35:05;;;;;;;;;;;;;;;19.44;100.00;99915.06;4915949;29;19970;-81
2023/09/01 07:37:31;;;;;;;;;;;;;;;19.51;100.00;99918.66;4916586;29;19931;-81
2023/09/01 07:39:56;;;;;;;;;;;;;;;19.56;100.00;99916.22;4916400;29;20383;-80
2023/09/01 07:42:22;;;;;;;;;;;;;;;19.67;100.00;99917.56;4916088;29;19934;-82
2023/09/01 07:44:48;;;;;;;;;;;;;;;19.76;100.00;99919.09;4916028;29;20337;-81
2023/09/01 07:47:13;;;;;;;;;;;;;;;19.79;100.00;99916.84;4915732;29;19923;-80
2023/09/01 07:49:39;;;;;;;;;;;;;;;19.91;100.00;99923.31;4915273;29;20388;-80
2023/09/01 07:52:04;;;;;;;;;;;;;;;20.00;100.00;99924.84;4915425;29;19923;-81
2023/09/01 07:54:29;;;;;;;;;;;;;;;20.10;100.00;99923.66;4915222;29;20296;-81
2023/09/01 07:56:55;;;;;;;;;;;;;;;20.17;100.00;99924.56;4930999;29;19923;-82
2023/09/01 07:59:20;;;;;;;;;;;;;;;20.22;100.00;99927.47;4915560;29;19930;-80
2023/09/01 08:01:46;;;;;;;;;;;;;;;20.29;100.00;99928.34;4930041;29;19938;-80
2023/09/01 08:04:11;;;;;;;;;;;;;;;20.36;100.00;99930.09;4915319;29;19973;-79
2023/09/01 08:06:36;;;;;;;;;;;;;;;20.43;100.00;99930.97;4924422;29;19983;-80
2023/09/01 08:09:03;;;;;;;;;;;;;;;20.50;100.00;99925.59;4918200;29;20006;-80
2023/09/01 08:11:28;;;;;;;;;;;;;;;20.51;100.00;99921.91;4915122;29;20026;-80
2023/09/01 08:13:53;;;;;;;;;;;;;;;20.54;100.00;99926.88;4916010;29;20006;-80
2023/09/01 08:16:19;;;;;;;;;;;;;;;20.61;100.00;99926.94;4915569;29;19923;-81
2023/09/01 08:18:44;;;;;;;;;;;;;;;20.69;100.00;99938.31;4915751;29;20281;-81
2023/09/01 08:21:10;;;;;;;;;;;;;;;20.76;100.00;99931.13;4915080;29;19996;-80
2023/09/01 08:23:35;;;;;;;;;;;;;;;20.82;100.00;99933.00;4915408;29;19977;-81
2023/09/01 08:26:07;;;;;;;;;;;;;;;20.89;100.00;99934.91;4910968;29;19934;-80
2023/09/01 08:28:32;;;;;;;;;;;;;;;20.96;100.00;99930.38;4915373;29;19930;-80
2023/09/01 08:31:06;;;;;;;;;;;;;;;21.04;100.00;99930.19;4914105;29;19923;-80
2023/09/01 08:33:32;;;;;;;;;;;;;;;21.10;100.00;99932.06;4915091;29;19923;-80
2023/09/01 08:36:03;;;;;;;;;;;;;;;21.15;100.00;99921.59;4915247;29;20372;-81
2023/09/01 08:38:28;;;;;;;;;;;;;;;21.19;100.00;99933.59;4914811;29;19931;-80
2023/09/01 08:41:03;;;;;;;;;;;;;;;21.23;100.00;99932.97;4914907;29;20004;-80
2023/09/01 08:43:31;;;;;;;;;;;;;;;21.29;100.00;99935.88;4933323;29;20381;-79
2023/09/01 08:45:57;;;;;;;;;;;;;;;21.34;100.00;99934.25;4929573;29;19930;-79
2023/09/01 08:48:22;;;;;;;;;;;;;;;21.40;100.00;99938.78;4914281;29;20642;-80
2023/09/01 08:50:49;;;;;;;;;;;;;;;21.46;100.00;99934.47;4914369;29;19951;-80
2023/09/01 08:53:14;;;;;;;;;;;;;;;21.52;100.00;99939.03;4914139;29;19923;-80
2023/09/01 08:55:39;;;;;;;;;;;;;;;21.57;100.00;99929.31;4914081;29;19923;-80
2023/09/01 08:58:05;;;;;;;;;;;;;;;21.63;100.00;99928.50;4913870;29;19934;-80
2023/09/01 09:00:31;;;;;;;;;;;;;;;21.68;100.00;99929.78;4914266;29;19930;-80
2023/09/01 09:02:56;;;;;;;;;;;;;;;21.73;100.00;99938.03;4912812;29;19923;-79
2023/09/01 09:05:23;;;;;;;;;;;;;;;21.78;100.00;99936.38;4913608;29;19927;-81
2023/09/01 09:07:58;;;;;;;;;;;;;;;21.83;100.00;99938.44;4913965;29;19931;-81
2023/09/01 09:10:33;;;;;;;;;;;;;;;21.86;100.00;99932.66;4909919;29;19927;-81
2023/09/01 09:12:58;;;;;;;;;;;;;;;21.90;100.00;99939.28;4913993;29;19930;-80
2023/09/01 09:15:24;;;;;;;;;;;;;;;21.97;100.00;99945.53;4913837;29;20662;-80
2023/09/01 09:17:49;;;;;;;;;;;;;;;21.98;100.00;99931.84;4914137;29;19930;-81
2023/09/01 09:20:17;;;;;;;;;;;;;;;22.04;100.00;99940.94;4913585;29;19970;-81
2023/09/01 09:22:49;;;;;;;;;;;;;;;22.08;100.00;99936.81;4932244;29;19923;-81
2023/09/01 09:25:25;;;;;;;;;;;;;;;22.14;100.00;99937.84;4911816;29;19923;-81
2023/09/01 09:27:50;;;;;;;;;;;;;;;22.19;100.00;99933.50;4914172;29;19923;-81
2023/09/01 09:30:16;;;;;;;;;;;;;;;22.26;100.00;99928.13;4913611;29;19930;-81
2023/09/01 09:32:41;;;;;;;;;;;;;;;22.33;100.00;99934.28;4914475;29;20261;-81
2023/09/01 09:35:12;;;;;;;;;;;;;;;22.39;100.00;99931.59;4913728;29;19923;-80
2023/09/01 09:37:39;;;;;;;;;;;;;;;22.44;100.00;99926.41;4913949;29;20010;-80
2023/09/01 09:40:11;;;;;;;;;;;;;;;22.49;100.00;99933.88;4913472;29;19923;-80
2023/09/01 09:42:38;;;;;;;;;;;;;;;22.53;100.00;99934.25;4912545;29;20026;-80
2023/09/01 09:45:04;;;;;;;;;;;;;;;22.59;100.00;99931.56;4913514;29;19924;-80
2023/09/01 09:47:30;;;;;;;;;;;;;;;22.66;100.00;99923.47;4913904;29;19930;-81
2023/09/01 09:49:56;;;;;;;;;;;;;;;22.69;100.00;99925.72;4913988;29;19926;-81
2023/09/01 09:52:22;;;;;;;;;;;;;;;22.74;100.00;99925.94;4928074;29;20392;-80
2023/09/01 09:54:48;;;;;;;;;;;;;;;22.78;100.00;99921.81;4913192;29;19979;-80
2023/09/01 09:57:14;;;;;;;;;;;;;;;22.82;100.00;99920.34;4913733;29;19946;-80
2023/09/01 09:59:43;;;;;;;;;;;;;;;22.85;100.00;99919.94;4932448;29;19923;-79
2023/09/01 10:02:23;;;;;;;;;;;;;;;22.89;100.00;99917.63;4913498;29;19923;-81
2023/09/01 10:04:49;;;;;;;;;;;;;;;22.95;100.00;99922.97;4913759;29;19989;-81
2023/09/01 10:07:15;;;;;;;;;;;;;;;23.01;100.00;99922.13;4913211;29;20372;-80
2023/09/01 10:09:41;;;;;;;;;;;;;;;23.08;100.00;99920.22;4913257;29;19929;-80
2023/09/01 10:12:07;;;;;;;;;;;;;;;23.16;100.00;99914.56;4912874;29;19923;-80
2023/09/01 10:14:37;;;;;;;;;;;;;;;23.25;100.00;99913.31;4915782;29;19927;-81
2023/09/01 10:17:03;;;;;;;;;;;;;;;23.32;100.00;99920.50;4917708;29;20361;-81
2023/09/01 10:19:28;;;;;;;;;;;;;;;23.35;100.00;99917.38;4917148;29;19961;-80
2023/09/01 10:21:54;;;;;;;;;;;;;;;23.43;100.00;99911.75;4917002;29;20062;-81
2023/09/01 10:24:19;;;;;;;;;;;;;;;23.50;100.00;99910.66;4916338;29;20670;-81
2023/09/01 10:27:04;;;;;;;;;;;;;;;23.49;100.00;99913.59;4916805;29;20026;-81
2023/09/01 10:29:34;;;;;;;;;;;;;;;23.47;100.00;99910.28;4917498;29;20292;-81
2023/09/01 10:32:18;;;;;;;;;;;;;;;23.48;100.00;99909.25;4917275;29;19981;-80
2023/09/01 10:34:53;;;;;;;;;;;;;;;23.57;100.00;99905.22;4916962;29;19927;-81
2023/09/01 10:37:36;;;;;;;;;;;;;;;23.66;100.00;99906.63;4916604;29;19941;-82
2023/09/01 10:40:04;;;;;;;;;;;;;;;23.71;100.00;99904.09;4916358;29;19923;-81
2023/09/01 10:42:39;;;;;;;;;;;;;;;23.72;100.00;99903.06;4916934;29;19924;-81
2023/09/01 10:45:05;;;;;;;;;;;;;;;23.76;100.00;99909.66;4916512;29;20026;-80
2023/09/01 10:47:31;;;;;;;;;;;;;;;23.79;100.00;99897.63;4916846;29;19923;-81
2023/09/01 10:49:57;;;;;;;;;;;;;;;23.81;100.00;99907.13;4916861;29;19954;-81
2023/09/01 10:52:28;;;;;;;;;;;;;;;23.81;100.00;99906.28;4912859;29;19990;-81
2023/09/01 10:55:00;;;;;;;;;;;;;;;23.82;100.00;99903.38;4916010;29;19923;-81
2023/09/01 10:57:43;;;;;;;;;;;;;;;23.83;100.00;99899.66;4912800;29;20344;-81
2023/09/01 11:00:28;;;;;;;;;;;;;;;23.91;100.00;99896.69;4916479;29;19939;-81
2023/09/01 11:02:53;;;;;;;;;;;;;;;23.99;100.00;99904.47;4917168;29;20269;-82
2023/09/01 11:05:37;;;;;;;;;;;;;;;24.04;100.00;99907.31;4916574;29;19930;-81
2023/09/01 11:08:17;;;;;;;;;;;;;;;24.09;100.00;99904.00;4916926;29;19927;-81
2023/09/01 11:10:43;;;;;;;;;;;;;;;24.16;100.00;99898.50;4916464;29;19946;-82
2023/09/01 11:13:14;;;;;;;;;;;;;;;24.20;100.00;99905.16;4916138;29;20344;-81
2023/09/01 11:15:43;;;;;;;;;;;;;;;24.23;100.00;99905.53;4916510;29;19971;-82
2023/09/01 11:18:19;;;;;;;;;;;;;;;24.26;100.00;99904.28;4916400;29;19923;-81
2023/09/01 11:20:45;;;;;;;;;;;;;;;24.30;100.00;99900.06;4916501;29;20276;-82
2023/09/01 11:23:11;;;;;;;;;;;;;;;24.28;100.00;99899.47;4916185;29;19923;-81
2023/09/01 11:25:36;;;;;;;;;;;;;;;24.30;100.00;99894.69;4915675;29;20475;-81
2023/09/01 11:28:02;;;;;;;;;;;;;;;24.38;100.00;99897.09;4916169;29;19927;-81
2023/09/01 11:30:27;;;;;;;;;;;;;;;24.44;100.00;99896.19;4916311;29;19933;-82
2023/09/01 11:32:53;;;;;;;;;;;;;;;24.46;100.00;99894.91;4912606;29;20348;-82
2023/09/01 11:35:21;;;;;;;;;;;;;;;24.48;100.00;99892.81;4916037;29;19923;-82
2023/09/01 11:37:47;;;;;;;;;;;;;;;24.48;100.00;99886.59;4916495;29;19930;-82
2023/09/01 11:40:13;;;;;;;;;;;;;;;24.51;100.00;99891.53;4915450;29;19927;-81
2023/09/01 11:42:39;;;;;;;;;;;;;;;24.51;100.00;99891.53;4930542;29;19970;-81
2023/09/01 11:45:08;;;;;;;;;;;;;;;24.50;100.00;99883.69;4915706;29;19923;-82
2023/09/01 11:47:37;;;;;;;;;;;;;;;24.50;100.00;99889.91;4916058;29;19991;-82
2023/09/01 11:50:03;;;;;;;;;;;;;;;24.50;100.00;99889.06;4915794;29;19923;-82
2023/09/01 11:52:28;;;;;;;;;;;;;;;24.49;100.00;99888.25;4930296;29;19934;-81
2023/09/01 11:54:54;;;;;;;;;;;;;;;24.48;100.00;99884.72;4915792;29;20254;-82
2023/09/01 11:57:20;;;;;;;;;;;;;;;24.51;100.00;99875.34;4915100;29;19966;-82
2023/09/01 11:59:48;;;;;;;;;;;;;;;24.58;100.00;99886.06;4917469;29;19930;-81
2023/09/01 12:02:14;;;;;;;;;;;;;;;24.62;100.00;99887.28;4929916;29;19950;-82
2023/09/01 12:04:48;;;;;;;;;;;;;;;24.64;100.00;99885.97;4915499;29;19927;-82
2023/09/01 12:07:24;;;;;;;;;;;;;;;24.65;100.00;99881.41;4915454;29;20401;-81
2023/09/01 12:09:50;;;;;;;;;;;;;;;24.66;100.00;99886.59;4915627;29;19950;-82
2023/09/01 12:12:15;;;;;;;;;;;;;;;24.67;100.00;99895.50;4914738;29;19969;-82
2023/09/01 12:14:41;;;;;;;;;;;;;;;24.64;100.00;99891.38;4915191;29;19969;-81
2023/09/01 12:17:16;;;;;;;;;;;;;;;24.64;100.00;99890.56;4914958;29;19955;-81
2023/09/01 12:19:50;;;;;;;;;;;;;;;24.65;100.00;99893.03;4915407;29;19975;-81
2023/09/01 12:22:16;;;;;;;;;;;;;;;24.66;100.00;99891.97;4914953;29;19923;-81
2023/09/01 12:24:51;;;;;;;;;;;;;;;24.67;100.00;99885.53;4915203;29;19978;-80
2023/09/01 12:27:16;;;;;;;;;;;;;;;24.73;100.00;99890.03;4929468;29;19939;-81
2023/09/01 12:29:42;;;;;;;;;;;;;;;24.80;100.00;99890.75;4917368;29;19926;-82
2023/09/01 12:32:07;;;;;;;;;;;;;;;24.87;100.00;99888.81;4914865;29;20344;-81
2023/09/01 12:34:32;;;;;;;;;;;;;;;24.96;100.00;99888.53;4915630;29;20384;-81